sensor_id;sensor_type;location;lat;lon;timestamp;pressure;altitude;pressure_sealevel;temperature;humidity
20897;BME280;10608;42.600;23.398;2022-11-15T00:01:39;62864.19;;;-138.16;100.00
20897;BME280;10608;42.600;23.398;2022-11-15T00:04:05;62864.19;;;-138.16;100.00
20897;BME280;10608;42.600;23.398;2022-11-15T00:06:31;62864.19;;;-138.16;100.00
20897;BME280;10608;42.600;23.398;2022-11-15T00:09:00;62864.19;;;-138.16;100.00
20897;BME280;10608;42.600;23.398;2022-11-15T00:11:26;62864.19;;;-138.16;100.00
20897;BME280;10608;42.600;23.398;2022-11-15T00:13:55;62864.19;;;-138.16;100.00
20897;BME280;10608;42.600;23.398;2022-11-15T00:16:20;62864.19;;;-138.16;100.00
20897;BME280;10608;42.600;23.398;2022-11-15T00:18:46;62864.19;;;-138.16;100.00
20897;BME280;10608;42.600;23.398;2022-11-15T00:21:13;62864.19;;;-138.16;100.00
20897;BME280;10608;42.600;23.398;2022-11-15T00:23:39;62864.19;;;-138.16;100.00
20897;BME280;10608;42.600;23.398;2022-11-15T00:26:04;62864.19;;;-138.16;100.00
20897;BME280;10608;42.600;23.398;2022-11-15T00:28:30;62864.19;;;-138.16;100.00
20897;BME280;10608;42.600;23.398;2022-11-15T00:31:03;62864.19;;;-138.16;100.00
20897;BME280;10608;42.600;23.398;2022-11-15T00:33:29;62864.19;;;-138.16;100.00
20897;BME280;10608;42.600;23.398;2022-11-15T00:36:06;62864.19;;;-138.16;100.00
20897;BME280;10608;42.600;23.398;2022-11-15T00:38:33;62864.19;;;-138.16;100.00
20897;BME280;10608;42.600;23.398;2022-11-15T00:41:00;62864.19;;;-138.16;100.00
20897;BME280;10608;42.600;23.398;2022-11-15T00:43:26;62864.19;;;-138.16;100.00
20897;BME280;10608;42.600;23.398;2022-11-15T00:45:51;62864.19;;;-138.16;100.00
20897;BME280;10608;42.600;23.398;2022-11-15T00:48:17;62864.19;;;-138.16;100.00
20897;BME280;10608;42.600;23.398;2022-11-15T00:50:42;62864.19;;;-138.16;100.00
20897;BME280;10608;42.600;23.398;2022-11-15T00:53:08;62864.19;;;-138.16;100.00
20897;BME280;10608;42.600;23.398;2022-11-15T00:55:33;62864.19;;;-138.16;100.00
20897;BME280;10608;42.600;23.398;2022-11-15T00:57:59;62864.19;;;-138.16;100.00
20897;BME280;10608;42.600;23.398;2022-11-15T01:00:24;62864.19;;;-138.16;100.00
20897;BME280;10608;42.600;23.398;2022-11-15T01:02:50;62864.19;;;-138.16;100.00
20897;BME280;10608;42.600;23.398;2022-11-15T01:05:15;62864.19;;;-138.16;100.00
20897;BME280;10608;42.600;23.398;2022-11-15T01:07:41;62864.19;;;-138.16;100.00
20897;BME280;10608;42.600;23.398;2022-11-15T01:10:07;62864.19;;;-138.16;100.00
20897;BME280;10608;42.600;23.398;2022-11-15T01:12:32;62864.19;;;-138.16;100.00
20897;BME280;10608;42.600;23.398;2022-11-15T01:14:58;62864.19;;;-138.16;100.00
20897;BME280;10608;42.600;23.398;2022-11-15T01:17:24;62864.19;;;-138.16;100.00
20897;BME280;10608;42.600;23.398;2022-11-15T01:19:49;62864.19;;;-138.16;100.00
20897;BME280;10608;42.600;23.398;2022-11-15T01:22:15;62864.19;;;-138.16;100.00
20897;BME280;10608;42.600;23.398;2022-11-15T01:24:41;62864.19;;;-138.16;100.00
20897;BME280;10608;42.600;23.398;2022-11-15T01:27:06;62864.19;;;-138.16;100.00
20897;BME280;10608;42.600;23.398;2022-11-15T01:29:32;62864.19;;;-138.16;100.00
20897;BME280;10608;42.600;23.398;2022-11-15T01:31:58;62864.19;;;-138.16;100.00
20897;BME280;10608;42.600;23.398;2022-11-15T01:34:23;62864.19;;;-138.16;100.00
20897;BME280;10608;42.600;23.398;2022-11-15T01:36:48;62864.19;;;-138.16;100.00
20897;BME280;10608;42.600;23.398;2022-11-15T01:39:14;62864.19;;;-138.16;100.00
20897;BME280;10608;42.600;23.398;2022-11-15T01:41:40;62864.19;;;-138.16;100.00
20897;BME280;10608;42.600;23.398;2022-11-15T01:44:44;62864.19;;;-138.16;100.00
20897;BME280;10608;42.600;23.398;2022-11-15T01:47:31;62864.19;;;-138.16;100.00
20897;BME280;10608;42.600;23.398;2022-11-15T01:50:00;62864.19;;;-138.16;100.00
20897;BME280;10608;42.600;23.398;2022-11-15T01:52:30;62864.19;;;-138.16;100.00
20897;BME280;10608;42.600;23.398;2022-11-15T01:55:09;62864.19;;;-138.16;100.00
20897;BME280;10608;42.600;23.398;2022-11-15T01:57:37;62864.19;;;-138.16;100.00
20897;BME280;10608;42.600;23.398;2022-11-15T02:00:04;62864.19;;;-138.16;100.00
20897;BME280;10608;42.600;23.398;2022-11-15T02:02:31;62864.19;;;-138.16;100.00
20897;BME280;10608;42.600;23.398;2022-11-15T02:04:57;62864.19;;;-138.16;100.00
20897;BME280;10608;42.600;23.398;2022-11-15T02:07:23;62864.19;;;-138.16;100.00
20897;BME280;10608;42.600;23.398;2022-11-15T02:09:49;62864.19;;;-138.16;100.00
20897;BME280;10608;42.600;23.398;2022-11-15T02:12:19;62864.19;;;-138.16;100.00
20897;BME280;10608;42.600;23.398;2022-11-15T02:14:49;62864.19;;;-138.16;100.00
20897;BME280;10608;42.600;23.398;2022-11-15T02:20:38;62864.19;;;-138.16;100.00
20897;BME280;10608;42.600;23.398;2022-11-15T02:26:19;62864.19;;;-138.16;100.00
20897;BME280;10608;42.600;23.398;2022-11-15T02:29:10;62864.19;;;-138.16;100.00
20897;BME280;10608;42.600;23.398;2022-11-15T02:42:36;62864.19;;;-138.16;100.00
20897;BME280;10608;42.600;23.398;2022-11-15T02:45:30;62864.19;;;-138.16;100.00
20897;BME280;10608;42.600;23.398;2022-11-15T02:47:59;62864.19;;;-138.16;100.00
20897;BME280;10608;42.600;23.398;2022-11-15T02:50:28;62864.19;;;-138.16;100.00
20897;BME280;10608;42.600;23.398;2022-11-15T02:52:55;62864.19;;;-138.16;100.00
20897;BME280;10608;42.600;23.398;2022-11-15T03:00:35;62864.19;;;-138.16;100.00
20897;BME280;10608;42.600;23.398;2022-11-15T03:03:25;62864.19;;;-138.16;100.00
20897;BME280;10608;42.600;23.398;2022-11-15T03:11:14;62864.19;;;-138.16;100.00
20897;BME280;10608;42.600;23.398;2022-11-15T03:16:41;62864.19;;;-138.16;100.00
20897;BME280;10608;42.600;23.398;2022-11-15T03:19:17;62864.19;;;-138.16;100.00
20897;BME280;10608;42.600;23.398;2022-11-15T03:21:47;62864.19;;;-138.16;100.00
20897;BME280;10608;42.600;23.398;2022-11-15T03:24:16;62864.19;;;-138.16;100.00
20897;BME280;10608;42.600;23.398;2022-11-15T03:26:43;62864.19;;;-138.16;100.00
20897;BME280;10608;42.600;23.398;2022-11-15T03:29:17;62864.19;;;-138.16;100.00
20897;BME280;10608;42.600;23.398;2022-11-15T03:31:46;62864.19;;;-138.16;100.00
20897;BME280;10608;42.600;23.398;2022-11-15T03:36:47;62864.19;;;-138.16;100.00
20897;BME280;10608;42.600;23.398;2022-11-15T03:39:14;62864.19;;;-138.16;100.00
20897;BME280;10608;42.600;23.398;2022-11-15T03:41:56;62864.19;;;-138.16;100.00
20897;BME280;10608;42.600;23.398;2022-11-15T03:44:27;62864.19;;;-138.16;100.00
20897;BME280;10608;42.600;23.398;2022-11-15T03:49:53;62864.19;;;-138.16;100.00
20897;BME280;10608;42.600;23.398;2022-11-15T03:52:21;62864.19;;;-138.16;100.00
20897;BME280;10608;42.600;23.398;2022-11-15T03:54:53;62864.19;;;-138.16;100.00
20897;BME280;10608;42.600;23.398;2022-11-15T03:57:19;62864.19;;;-138.16;100.00
20897;BME280;10608;42.600;23.398;2022-11-15T03:59:44;62864.19;;;-138.16;100.00
20897;BME280;10608;42.600;23.398;2022-11-15T04:02:11;62864.19;;;-138.16;100.00
20897;BME280;10608;42.600;23.398;2022-11-15T04:04:37;62864.19;;;-138.16;100.00
20897;BME280;10608;42.600;23.398;2022-11-15T04:07:02;62864.19;;;-138.16;100.00
20897;BME280;10608;42.600;23.398;2022-11-15T04:09:28;62864.19;;;-138.16;100.00
20897;BME280;10608;42.600;23.398;2022-11-15T04:11:53;62864.19;;;-138.16;100.00
20897;BME280;10608;42.600;23.398;2022-11-15T04:14:19;62864.19;;;-138.16;100.00
20897;BME280;10608;42.600;23.398;2022-11-15T04:16:44;62864.19;;;-138.16;100.00
20897;BME280;10608;42.600;23.398;2022-11-15T04:19:09;62864.19;;;-138.16;100.00
20897;BME280;10608;42.600;23.398;2022-11-15T04:21:53;62864.19;;;-138.16;100.00
20897;BME280;10608;42.600;23.398;2022-11-15T04:24:37;62864.19;;;-138.16;100.00
20897;BME280;10608;42.600;23.398;2022-11-15T04:27:03;62864.19;;;-138.16;100.00
20897;BME280;10608;42.600;23.398;2022-11-15T04:29:28;62864.19;;;-138.16;100.00
20897;BME280;10608;42.600;23.398;2022-11-15T04:32:03;62864.19;;;-138.16;100.00
20897;BME280;10608;42.600;23.398;2022-11-15T04:34:29;62864.19;;;-138.16;100.00
20897;BME280;10608;42.600;23.398;2022-11-15T04:36:54;62864.19;;;-138.16;100.00
20897;BME280;10608;42.600;23.398;2022-11-15T04:39:42;62864.19;;;-138.16;100.00
20897;BME280;10608;42.600;23.398;2022-11-15T04:42:08;62864.19;;;-138.16;100.00
20897;BME280;10608;42.600;23.398;2022-11-15T04:44:34;62864.19;;;-138.16;100.00
20897;BME280;10608;42.600;23.398;2022-11-15T04:47:01;62864.19;;;-138.16;100.00
20897;BME280;10608;42.600;23.398;2022-11-15T04:49:27;62864.19;;;-138.16;100.00
20897;BME280;10608;42.600;23.398;2022-11-15T04:51:52;62864.19;;;-138.16;100.00
20897;BME280;10608;42.600;23.398;2022-11-15T04:54:17;62864.19;;;-138.16;100.00
20897;BME280;10608;42.600;23.398;2022-11-15T04:56:43;62864.19;;;-138.16;100.00
20897;BME280;10608;42.600;23.398;2022-11-15T04:59:08;62864.19;;;-138.16;100.00
20897;BME280;10608;42.600;23.398;2022-11-15T05:01:34;62864.19;;;-138.16;100.00
20897;BME280;10608;42.600;23.398;2022-11-15T05:03:59;62864.19;;;-138.16;100.00
20897;BME280;10608;42.600;23.398;2022-11-15T05:06:43;62864.19;;;-138.16;100.00
20897;BME280;10608;42.600;23.398;2022-11-15T05:09:08;62864.19;;;-138.16;100.00
20897;BME280;10608;42.600;23.398;2022-11-15T05:11:34;62864.19;;;-138.16;100.00
20897;BME280;10608;42.600;23.398;2022-11-15T05:13:59;62864.19;;;-138.16;100.00
20897;BME280;10608;42.600;23.398;2022-11-15T05:16:25;62864.19;;;-138.16;100.00
20897;BME280;10608;42.600;23.398;2022-11-15T05:18:54;62864.19;;;-138.16;100.00
20897;BME280;10608;42.600;23.398;2022-11-15T05:21:19;62864.19;;;-138.16;100.00
20897;BME280;10608;42.600;23.398;2022-11-15T05:23:45;62864.19;;;-138.16;100.00
20897;BME280;10608;42.600;23.398;2022-11-15T05:26:11;62864.19;;;-138.16;100.00
20897;BME280;10608;42.600;23.398;2022-11-15T05:28:37;62864.19;;;-138.16;100.00
20897;BME280;10608;42.600;23.398;2022-11-15T05:31:10;62864.19;;;-138.16;100.00
20897;BME280;10608;42.600;23.398;2022-11-15T05:33:36;62864.19;;;-138.16;100.00
20897;BME280;10608;42.600;23.398;2022-11-15T05:36:07;62864.19;;;-138.16;100.00
20897;BME280;10608;42.600;23.398;2022-11-15T05:38:34;62864.19;;;-138.16;100.00
20897;BME280;10608;42.600;23.398;2022-11-15T05:41:01;62864.19;;;-138.16;100.00
20897;BME280;10608;42.600;23.398;2022-11-15T05:43:29;62864.19;;;-138.16;100.00
20897;BME280;10608;42.600;23.398;2022-11-15T05:45:56;62864.19;;;-138.16;100.00
20897;BME280;10608;42.600;23.398;2022-11-15T05:48:22;62864.19;;;-138.16;100.00
20897;BME280;10608;42.600;23.398;2022-11-15T05:50:47;62864.19;;;-138.16;100.00
20897;BME280;10608;42.600;23.398;2022-11-15T05:53:16;62864.19;;;-138.16;100.00
20897;BME280;10608;42.600;23.398;2022-11-15T05:55:43;62864.19;;;-138.16;100.00
20897;BME280;10608;42.600;23.398;2022-11-15T05:58:09;62864.19;;;-138.16;100.00
20897;BME280;10608;42.600;23.398;2022-11-15T06:00:34;62864.19;;;-138.16;100.00
20897;BME280;10608;42.600;23.398;2022-11-15T06:03:00;62864.19;;;-138.16;100.00
20897;BME280;10608;42.600;23.398;2022-11-15T06:05:25;62864.19;;;-138.16;100.00
20897;BME280;10608;42.600;23.398;2022-11-15T06:07:50;62864.19;;;-138.16;100.00
20897;BME280;10608;42.600;23.398;2022-11-15T06:10:16;62864.19;;;-138.16;100.00
20897;BME280;10608;42.600;23.398;2022-11-15T06:12:42;62864.19;;;-138.16;100.00
20897;BME280;10608;42.600;23.398;2022-11-15T06:15:07;62864.19;;;-138.16;100.00
20897;BME280;10608;42.600;23.398;2022-11-15T06:17:33;62864.19;;;-138.16;100.00
20897;BME280;10608;42.600;23.398;2022-11-15T06:19:58;62864.19;;;-138.16;100.00
20897;BME280;10608;42.600;23.398;2022-11-15T06:22:24;62864.19;;;-138.16;100.00
20897;BME280;10608;42.600;23.398;2022-11-15T06:24:49;62864.19;;;-138.16;100.00
20897;BME280;10608;42.600;23.398;2022-11-15T06:27:14;62864.19;;;-138.16;100.00
20897;BME280;10608;42.600;23.398;2022-11-15T06:29:46;62864.19;;;-138.16;100.00
20897;BME280;10608;42.600;23.398;2022-11-15T06:32:11;62864.19;;;-138.16;100.00
20897;BME280;10608;42.600;23.398;2022-11-15T06:34:37;62864.19;;;-138.16;100.00
20897;BME280;10608;42.600;23.398;2022-11-15T06:37:02;62864.19;;;-138.16;100.00
20897;BME280;10608;42.600;23.398;2022-11-15T06:39:28;62864.19;;;-138.16;100.00
20897;BME280;10608;42.600;23.398;2022-11-15T06:41:53;62864.19;;;-138.16;100.00
20897;BME280;10608;42.600;23.398;2022-11-15T06:44:18;62864.19;;;-138.16;100.00
20897;BME280;10608;42.600;23.398;2022-11-15T06:46:44;62864.19;;;-138.16;100.00
20897;BME280;10608;42.600;23.398;2022-11-15T06:49:09;62864.19;;;-138.16;100.00
20897;BME280;10608;42.600;23.398;2022-11-15T06:51:35;62864.19;;;-138.16;100.00
20897;BME280;10608;42.600;23.398;2022-11-15T06:54:00;53343.31;;;-138.15;45.41
20897;BME280;10608;42.600;23.398;2022-11-15T06:56:26;53343.31;;;-138.15;40.98
20897;BME280;10608;42.600;23.398;2022-11-15T06:58:51;53301.91;;;-138.15;41.21
20897;BME280;10608;42.600;23.398;2022-11-15T07:01:16;53307.81;;;-138.15;39.41
20897;BME280;10608;42.600;23.398;2022-11-15T07:03:42;53337.41;;;-138.15;38.42
20897;BME280;10608;42.600;23.398;2022-11-15T07:06:08;53303.88;;;-138.15;39.03
20897;BME280;10608;42.600;23.398;2022-11-15T07:08:35;53347.28;;;-138.15;44.48
20897;BME280;10608;42.600;23.398;2022-11-15T07:11:03;53295.97;;;-138.15;48.61
20897;BME280;10608;42.600;23.398;2022-11-15T07:13:30;53301.91;;;-138.15;51.03
20897;BME280;10608;42.600;23.398;2022-11-15T07:16:01;53339.38;;;-138.15;47.63
20897;BME280;10608;42.600;23.398;2022-11-15T07:18:26;53323.59;;;-138.15;49.01
20897;BME280;10608;42.600;23.398;2022-11-15T07:20:52;53321.63;;;-138.15;47.01
20897;BME280;10608;42.600;23.398;2022-11-15T07:23:18;53341.34;;;-138.15;42.81
20897;BME280;10608;42.600;23.398;2022-11-15T07:25:43;53327.53;;;-138.15;44.68
20897;BME280;10608;42.600;23.398;2022-11-15T07:28:09;53317.69;;;-138.15;46.00
20897;BME280;10608;42.600;23.398;2022-11-15T07:30:34;53303.88;;;-138.15;40.21
20897;BME280;10608;42.600;23.398;2022-11-15T07:33:00;53321.63;;;-138.15;36.24
20897;BME280;10608;42.600;23.398;2022-11-15T07:35:27;53278.22;;;-138.15;32.63
20897;BME280;10608;42.600;23.398;2022-11-15T07:38:00;53303.88;;;-138.15;33.23
20897;BME280;10608;42.600;23.398;2022-11-15T07:40:30;53325.56;;;-138.15;33.11
20897;BME280;10608;42.600;23.398;2022-11-15T07:43:04;53299.94;;;-138.15;35.50
20897;BME280;10608;42.600;23.398;2022-11-15T07:45:30;53309.78;;;-138.15;39.23
20897;BME280;10608;42.600;23.398;2022-11-15T07:47:56;53282.19;;;-138.15;40.33
20897;BME280;10608;42.600;23.398;2022-11-15T07:50:23;53294.00;;;-138.15;42.92
20897;BME280;10608;42.600;23.398;2022-11-15T07:52:54;53317.69;;;-138.15;44.27
20897;BME280;10608;42.600;23.398;2022-11-15T07:55:20;53341.34;;;-138.15;46.15
20897;BME280;10608;42.600;23.398;2022-11-15T07:57:45;53333.47;;;-138.15;50.40
20897;BME280;10608;42.600;23.398;2022-11-15T08:00:11;53327.53;;;-138.15;52.60
20897;BME280;10608;42.600;23.398;2022-11-15T08:02:37;53329.53;;;-138.15;52.65
20897;BME280;10608;42.600;23.398;2022-11-15T08:05:02;53319.66;;;-138.15;52.68
20897;BME280;10608;42.600;23.398;2022-11-15T08:07:30;53355.16;;;-138.15;53.80
20897;BME280;10608;42.600;23.398;2022-11-15T08:09:56;53329.53;;;-138.15;57.39
20897;BME280;10608;42.600;23.398;2022-11-15T08:12:21;53353.19;;;-138.15;57.47
20897;BME280;10608;42.600;23.398;2022-11-15T08:14:47;53345.31;;;-138.15;57.46
20897;BME280;10608;42.600;23.398;2022-11-15T08:17:13;53325.56;;;-138.15;57.52
20897;BME280;10608;42.600;23.398;2022-11-15T08:19:39;53335.44;;;-138.15;57.54
20897;BME280;10608;42.600;23.398;2022-11-15T08:22:04;53317.69;;;-138.15;57.72
20897;BME280;10608;42.600;23.398;2022-11-15T08:24:29;53349.25;;;-138.15;60.12
20897;BME280;10608;42.600;23.398;2022-11-15T08:26:55;53355.16;;;-138.15;62.08
20897;BME280;10608;42.600;23.398;2022-11-15T08:29:20;53317.69;;;-138.15;61.06
20897;BME280;10608;42.600;23.398;2022-11-15T08:31:46;53368.97;;;-138.15;61.75
20897;BME280;10608;42.600;23.398;2022-11-15T08:34:11;53343.31;;;-138.15;61.97
20897;BME280;10608;42.600;23.398;2022-11-15T08:36:37;53337.41;;;-138.15;63.39
20897;BME280;10608;42.600;23.398;2022-11-15T08:39:02;53347.28;;;-138.15;62.54
20897;BME280;10608;42.600;23.398;2022-11-15T08:41:31;53363.06;;;-138.15;60.45
20897;BME280;10608;42.600;23.398;2022-11-15T08:43:57;53329.53;;;-138.15;59.96
20897;BME280;10608;42.600;23.398;2022-11-15T08:46:22;53347.28;;;-138.15;61.67
20897;BME280;10608;42.600;23.398;2022-11-15T08:48:48;53363.06;;;-138.15;61.28
20897;BME280;10608;42.600;23.398;2022-11-15T08:51:13;53357.13;;;-138.15;62.94
20897;BME280;10608;42.600;23.398;2022-11-15T08:53:39;53347.28;;;-138.15;62.90
20897;BME280;10608;42.600;23.398;2022-11-15T08:56:09;53367.00;;;-138.15;64.31
20897;BME280;10608;42.600;23.398;2022-11-15T08:58:35;53345.31;;;-138.15;63.41
20897;BME280;10608;42.600;23.398;2022-11-15T09:01:02;53335.44;;;-138.15;62.91
20897;BME280;10608;42.600;23.398;2022-11-15T09:03:27;53347.28;;;-138.15;61.47
20897;BME280;10608;42.600;23.398;2022-11-15T09:05:58;53353.19;;;-138.15;63.01
20897;BME280;10608;42.600;23.398;2022-11-15T09:08:24;53339.38;;;-138.15;65.83
20897;BME280;10608;42.600;23.398;2022-11-15T09:10:50;53359.13;;;-138.15;62.58
20897;BME280;10608;42.600;23.398;2022-11-15T09:13:16;53323.59;;;-138.15;60.58
20897;BME280;10608;42.600;23.398;2022-11-15T09:15:41;53351.22;;;-138.15;58.21
20897;BME280;10608;42.600;23.398;2022-11-15T09:18:07;53365.03;;;-138.15;56.80
20897;BME280;10608;42.600;23.398;2022-11-15T09:20:32;53349.25;;;-138.15;54.95
20897;BME280;10608;42.600;23.398;2022-11-15T09:23:01;53359.13;;;-138.15;53.80
20897;BME280;10608;42.600;23.398;2022-11-15T09:25:28;53309.78;;;-138.15;51.98
20897;BME280;10608;42.600;23.398;2022-11-15T09:27:54;53365.03;;;-138.15;50.05
20897;BME280;10608;42.600;23.398;2022-11-15T09:30:19;53337.41;;;-138.15;49.75
20897;BME280;10608;42.600;23.398;2022-11-15T09:32:45;53329.53;;;-138.15;49.22
20897;BME280;10608;42.600;23.398;2022-11-15T09:35:10;53311.75;;;-138.15;51.22
20897;BME280;10608;42.600;23.398;2022-11-15T09:37:36;53297.97;;;-138.15;51.79
20897;BME280;10608;42.600;23.398;2022-11-15T09:40:01;53325.56;;;-138.15;53.37
20897;BME280;10608;42.600;23.398;2022-11-15T09:46:13;53347.28;;;-138.15;54.31
20897;BME280;10608;42.600;23.398;2022-11-15T09:48:54;53345.31;;;-138.15;55.45
20897;BME280;10608;42.600;23.398;2022-11-15T09:51:52;53309.78;;;-138.15;54.77
20897;BME280;10608;42.600;23.398;2022-11-15T09:57:02;53349.25;;;-138.15;55.24
20897;BME280;10608;42.600;23.398;2022-11-15T10:05:31;53361.09;;;-138.15;54.17
20897;BME280;10608;42.600;23.398;2022-11-15T10:11:02;53349.25;;;-138.15;58.57
20897;BME280;10608;42.600;23.398;2022-11-15T10:13:33;53359.13;;;-138.15;59.66
20897;BME280;10608;42.600;23.398;2022-11-15T10:16:15;53341.34;;;-138.15;60.89
20897;BME280;10608;42.600;23.398;2022-11-15T10:18:47;53372.91;;;-138.15;60.82
20897;BME280;10608;42.600;23.398;2022-11-15T10:21:25;53353.19;;;-138.15;61.45
20897;BME280;10608;42.600;23.398;2022-11-15T10:23:54;53339.38;;;-138.15;59.75
20897;BME280;10608;42.600;23.398;2022-11-15T10:26:20;53333.47;;;-138.15;58.43
20897;BME280;10608;42.600;23.398;2022-11-15T10:28:46;53351.22;;;-138.15;57.36
20897;BME280;10608;42.600;23.398;2022-11-15T10:31:24;53353.19;;;-138.15;57.46
20897;BME280;10608;42.600;23.398;2022-11-15T10:33:50;53329.53;;;-138.15;57.56
20897;BME280;10608;42.600;23.398;2022-11-15T10:36:21;53345.31;;;-138.15;58.21
20897;BME280;10608;42.600;23.398;2022-11-15T10:43:41;53351.22;;;-138.15;57.01
20897;BME280;10608;42.600;23.398;2022-11-15T10:46:21;53349.25;;;-138.15;53.12
20897;BME280;10608;42.600;23.398;2022-11-15T10:48:47;53290.06;;;-138.15;49.33
20897;BME280;10608;42.600;23.398;2022-11-15T10:51:25;53331.50;;;-138.15;45.24
20897;BME280;10608;42.600;23.398;2022-11-15T10:53:54;53333.47;;;-138.15;43.70
20897;BME280;10608;42.600;23.398;2022-11-15T10:56:21;53343.31;;;-138.15;43.89
20897;BME280;10608;42.600;23.398;2022-11-15T10:58:57;53319.66;;;-138.15;48.20
20897;BME280;10608;42.600;23.398;2022-11-15T11:01:27;53337.41;;;-138.15;51.10
20897;BME280;10608;42.600;23.398;2022-11-15T11:04:08;53357.13;;;-138.15;52.71
20897;BME280;10608;42.600;23.398;2022-11-15T11:06:54;53341.34;;;-138.15;56.30
20897;BME280;10608;42.600;23.398;2022-11-15T11:11:50;53333.47;;;-138.15;57.75
20897;BME280;10608;42.600;23.398;2022-11-15T11:14:28;53345.31;;;-138.15;59.92
20897;BME280;10608;42.600;23.398;2022-11-15T11:25:30;53345.31;;;-138.15;62.33
20897;BME280;10608;42.600;23.398;2022-11-15T11:31:00;53357.13;;;-138.15;62.51
20897;BME280;10608;42.600;23.398;2022-11-15T11:33:36;53372.91;;;-138.15;63.85
20897;BME280;10608;42.600;23.398;2022-11-15T11:38:58;53347.28;;;-138.15;64.64
20897;BME280;10608;42.600;23.398;2022-11-15T11:44:37;53349.25;;;-138.15;64.93
20897;BME280;10608;42.600;23.398;2022-11-15T11:47:16;53349.25;;;-138.15;64.47
20897;BME280;10608;42.600;23.398;2022-11-15T11:49:59;53337.41;;;-138.15;65.38
20897;BME280;10608;42.600;23.398;2022-11-15T11:52:41;53367.00;;;-138.15;64.76
20897;BME280;10608;42.600;23.398;2022-11-15T11:55:14;53357.13;;;-138.15;64.74
20897;BME280;10608;42.600;23.398;2022-11-15T12:03:50;53361.09;;;-138.15;64.67
20897;BME280;10608;42.600;23.398;2022-11-15T12:06:45;53325.56;;;-138.15;64.26
20897;BME280;10608;42.600;23.398;2022-11-15T12:09:30;53363.06;;;-138.15;64.01
20897;BME280;10608;42.600;23.398;2022-11-15T12:12:08;53361.09;;;-138.15;63.77
20897;BME280;10608;42.600;23.398;2022-11-15T12:17:00;53380.81;;;-138.15;64.72
20897;BME280;10608;42.600;23.398;2022-11-15T12:19:26;53382.78;;;-138.15;63.79
20897;BME280;10608;42.600;23.398;2022-11-15T12:24:37;53357.13;;;-138.15;62.98
20897;BME280;10608;42.600;23.398;2022-11-15T12:27:15;53345.31;;;-138.15;63.73
20897;BME280;10608;42.600;23.398;2022-11-15T12:29:46;53365.03;;;-138.15;63.87
20897;BME280;10608;42.600;23.398;2022-11-15T12:34:48;53333.47;;;-138.15;63.33
20897;BME280;10608;42.600;23.398;2022-11-15T12:37:50;53380.81;;;-138.15;62.63
20897;BME280;10608;42.600;23.398;2022-11-15T12:45:33;53345.31;;;-138.15;62.73
20897;BME280;10608;42.600;23.398;2022-11-15T12:58:55;53380.81;;;-138.15;62.20
20897;BME280;10608;42.600;23.398;2022-11-15T13:07:01;53341.34;;;-138.15;61.27
20897;BME280;10608;42.600;23.398;2022-11-15T13:11:54;53337.41;;;-138.15;61.48
20897;BME280;10608;42.600;23.398;2022-11-15T13:14:51;53329.53;;;-138.15;61.52
20897;BME280;10608;42.600;23.398;2022-11-15T13:17:32;53333.47;;;-138.15;61.15
20897;BME280;10608;42.600;23.398;2022-11-15T13:20:11;53341.34;;;-138.15;61.65
20897;BME280;10608;42.600;23.398;2022-11-15T13:23:11;53341.34;;;-138.15;62.19
20897;BME280;10608;42.600;23.398;2022-11-15T13:28:27;53341.34;;;-138.15;62.04
20897;BME280;10608;42.600;23.398;2022-11-15T13:31:00;53367.00;;;-138.15;61.30
20897;BME280;10608;42.600;23.398;2022-11-15T13:36:25;53323.59;;;-138.15;60.84
20897;BME280;10608;42.600;23.398;2022-11-15T13:39:25;53361.09;;;-138.15;60.32
20897;BME280;10608;42.600;23.398;2022-11-15T13:41:49;53315.72;;;-138.15;59.90
20897;BME280;10608;42.600;23.398;2022-11-15T13:44:33;53335.44;;;-138.15;60.31
20897;BME280;10608;42.600;23.398;2022-11-15T13:49:32;53392.66;;;-138.15;60.30
20897;BME280;10608;42.600;23.398;2022-11-15T13:52:00;53341.34;;;-138.15;60.17
20897;BME280;10608;42.600;23.398;2022-11-15T13:54:54;53341.34;;;-138.15;59.60
20897;BME280;10608;42.600;23.398;2022-11-15T13:57:25;53339.38;;;-138.15;59.66
20897;BME280;10608;42.600;23.398;2022-11-15T13:59:55;53329.53;;;-138.15;59.54
20897;BME280;10608;42.600;23.398;2022-11-15T14:02:28;53349.25;;;-138.15;59.27
20897;BME280;10608;42.600;23.398;2022-11-15T14:05:02;53319.66;;;-138.15;59.54
20897;BME280;10608;42.600;23.398;2022-11-15T14:07:30;53339.38;;;-138.15;59.06
20897;BME280;10608;42.600;23.398;2022-11-15T14:09:56;53331.50;;;-138.15;59.52
20897;BME280;10608;42.600;23.398;2022-11-15T14:12:30;53349.25;;;-138.15;59.50
20897;BME280;10608;42.600;23.398;2022-11-15T14:14:58;53361.09;;;-138.15;59.30
20897;BME280;10608;42.600;23.398;2022-11-15T14:19:58;53329.53;;;-138.15;59.85
20897;BME280;10608;42.600;23.398;2022-11-15T14:22:29;53355.16;;;-138.15;60.33
20897;BME280;10608;42.600;23.398;2022-11-15T14:25:28;53321.63;;;-138.15;60.72
20897;BME280;10608;42.600;23.398;2022-11-15T14:28:14;53329.53;;;-138.15;61.09
20897;BME280;10608;42.600;23.398;2022-11-15T14:30:42;53355.16;;;-138.15;60.58
20897;BME280;10608;42.600;23.398;2022-11-15T14:35:47;53331.50;;;-138.15;61.24
20897;BME280;10608;42.600;23.398;2022-11-15T14:38:13;53359.13;;;-138.15;61.51
20897;BME280;10608;42.600;23.398;2022-11-15T14:40:42;53367.00;;;-138.15;61.47
20897;BME280;10608;42.600;23.398;2022-11-15T14:43:09;53378.84;;;-138.15;61.13
20897;BME280;10608;42.600;23.398;2022-11-15T14:45:35;53388.69;;;-138.15;61.78